createdAt,value
2018-12-07T00:00:11.825Z,3.84
2018-12-07T00:03:41.769Z,5.88
2018-12-07T00:07:11.912Z,6.29
2018-12-07T00:10:41.979Z,8.21
2018-12-07T00:14:13.266Z,3.6
2018-12-07T00:17:43.526Z,6.32
2018-12-07T00:21:13.679Z,7.75
2018-12-07T00:24:43.670Z,8.55
2018-12-07T00:28:13.803Z,5.6
2018-12-07T00:31:43.765Z,7.7
2018-12-07T00:35:13.966Z,9.7
2018-12-07T00:38:44.210Z,8.31
2018-12-07T00:42:14.320Z,9.27
2018-12-07T00:45:44.472Z,9.48
2018-12-07T00:49:14.484Z,4.96
2018-12-07T00:52:44.525Z,10.19
2018-12-07T00:56:14.507Z,10.21
2018-12-07T00:59:44.529Z,6.97
2018-12-07T01:03:14.652Z,9.72
2018-12-07T01:06:44.783Z,9.8
2018-12-07T01:10:14.845Z,7.81
2018-12-07T01:13:44.927Z,9.32
2018-12-07T01:17:15.238Z,5.32
2018-12-07T01:20:45.270Z,6.35
2018-12-07T01:24:15.362Z,8.34
2018-12-07T01:27:45.485Z,8.86
2018-12-07T01:31:15.557Z,8.18
2018-12-07T01:34:45.705Z,8.34
2018-12-07T01:38:15.830Z,8.54
2018-12-07T01:41:45.932Z,10.75
2018-12-07T01:45:16.014Z,8.51
2018-12-07T01:48:46.286Z,7.99
2018-12-07T01:52:16.424Z,9.84
2018-12-07T01:55:46.561Z,7.12
2018-12-07T01:59:16.702Z,7.76
2018-12-07T02:00:11.450Z,7.74
2018-12-07T02:03:41.441Z,8.57
2018-12-07T02:07:43.872Z,7.58
2018-12-07T02:11:13.957Z,8
2018-12-07T02:14:44.045Z,8.65
2018-12-07T02:18:14.068Z,9.31
2018-12-07T02:21:44.200Z,9.54
2018-12-07T02:25:14.161Z,6.69
2018-12-07T02:28:44.374Z,8.9
2018-12-07T02:32:14.415Z,8.06
2018-12-07T02:35:44.541Z,7.86
2018-12-07T02:39:14.534Z,11.64
2018-12-07T02:42:44.611Z,8.39
2018-12-07T02:46:14.633Z,7.34
2018-12-07T02:49:44.955Z,9.39
2018-12-07T02:53:14.967Z,7.3
2018-12-07T02:56:45.062Z,7.75
2018-12-07T03:00:15.277Z,8.51
2018-12-07T03:03:45.382Z,7.99
2018-12-07T03:07:15.375Z,6.8
2018-12-07T03:10:45.388Z,7.84
2018-12-07T03:14:15.334Z,8
2018-12-07T03:17:45.400Z,7.57
2018-12-07T03:21:15.506Z,7.28
2018-12-07T03:24:45.783Z,7.46
2018-12-07T03:28:15.873Z,9.15
2018-12-07T03:31:45.979Z,7.71
2018-12-07T03:35:16.126Z,8.84
2018-12-07T03:38:46.531Z,9.07
2018-12-07T03:42:16.623Z,7.49
2018-12-07T03:45:46.715Z,6.2
2018-12-07T03:49:16.790Z,8.76
2018-12-07T03:52:47.189Z,8.75
2018-12-07T03:56:17.141Z,7.86
2018-12-07T03:59:47.213Z,8.85
2018-12-07T04:00:11.320Z,10.97
2018-12-07T04:03:41.849Z,8.42
2018-12-07T04:07:11.986Z,7.46
2018-12-07T04:10:42.058Z,6.9
2018-12-07T04:14:12.101Z,8.05
2018-12-07T04:17:42.148Z,8.31
2018-12-07T04:21:12.324Z,7.19
2018-12-07T04:24:42.394Z,7.9
2018-12-07T04:28:12.402Z,8.32
2018-12-07T04:31:42.654Z,8.62
2018-12-07T04:35:12.644Z,6.89
2018-12-07T04:38:42.714Z,8.01
2018-12-07T04:42:12.769Z,8.01
2018-12-07T04:45:42.738Z,8.14
2018-12-07T04:49:12.880Z,9.91
2018-12-07T04:52:43.061Z,8.38
2018-12-07T04:56:13.191Z,8.88
2018-12-07T04:59:43.145Z,11.49
2018-12-07T05:03:13.252Z,9.53
2018-12-07T05:06:43.359Z,9.2
2018-12-07T05:10:13.521Z,10.94
2018-12-07T05:13:43.533Z,8.15
2018-12-07T05:17:13.615Z,10.32
2018-12-07T05:20:43.787Z,9.86
2018-12-07T05:24:13.827Z,10.75
2018-12-07T05:27:43.960Z,11.36
2018-12-07T05:31:14.114Z,11.74
2018-12-07T05:34:44.121Z,16.26
2018-12-07T05:38:14.152Z,19.26
2018-12-07T05:41:44.229Z,16.48
2018-12-07T05:45:14.420Z,14.96
2018-12-07T05:48:44.522Z,12.12
2018-12-07T05:52:14.714Z,13.3
2018-12-07T05:55:44.796Z,12.99
2018-12-07T05:59:15.098Z,13.28
2018-12-07T06:00:10.276Z,14.9
2018-12-07T06:03:40.322Z,12.1
2018-12-07T06:07:10.360Z,13.89
2018-12-07T06:10:40.347Z,12.26
2018-12-07T06:14:10.435Z,11.5
2018-12-07T06:17:40.465Z,10.83
2018-12-07T06:21:10.455Z,14.17
2018-12-07T06:24:40.499Z,38.96
2018-12-07T06:28:10.571Z,35.89
2018-12-07T06:31:40.734Z,24.12
2018-12-07T06:35:10.926Z,17.62
2018-12-07T06:38:41.028Z,12.07
2018-12-07T06:42:11.309Z,18.91
2018-12-07T06:45:41.381Z,18.88
2018-12-07T06:49:12.073Z,27.38
2018-12-07T06:52:42.035Z,43.6
2018-12-07T06:56:12.117Z,23.81
2018-12-07T06:59:42.381Z,23.23
2018-12-07T07:03:12.491Z,15.66
2018-12-07T07:06:42.493Z,15.5
2018-12-07T07:10:12.460Z,14.18
2018-12-07T07:13:42.657Z,14.77
2018-12-07T07:17:12.889Z,15.18
2018-12-07T07:20:42.975Z,13.54
2018-12-07T07:24:13.293Z,15.77
2018-12-07T07:27:43.315Z,14.26
2018-12-07T07:31:13.416Z,14.26
2018-12-07T07:34:43.439Z,13.81
2018-12-07T07:38:13.591Z,14.31
2018-12-07T07:41:43.623Z,14.35
2018-12-07T07:45:13.785Z,13.3
2018-12-07T07:48:43.751Z,9.72
2018-12-07T07:52:13.824Z,5.5
2018-12-07T07:55:43.863Z,7.37
2018-12-07T07:59:13.943Z,7.19
2018-12-07T08:00:10.421Z,9.51
2018-12-07T08:03:40.443Z,9.43
2018-12-07T08:07:10.565Z,9.61
2018-12-07T08:10:40.607Z,9.31
2018-12-07T08:14:10.619Z,9.24
2018-12-07T08:17:40.688Z,8.73
2018-12-07T08:21:10.783Z,6.08
2018-12-07T08:24:40.856Z,5.49
2018-12-07T08:28:11.012Z,6.3
2018-12-07T08:31:41.225Z,8.88
2018-12-07T08:35:11.342Z,7.59
2018-12-07T08:38:41.424Z,8.71
2018-12-07T08:42:11.526Z,8.58
2018-12-07T08:45:41.627Z,8.97
2018-12-07T08:49:11.673Z,9.43
2018-12-07T08:52:41.702Z,10.34
2018-12-07T08:56:11.793Z,9.94
2018-12-07T08:59:41.869Z,7.88
2018-12-07T09:03:12.113Z,9.21
2018-12-07T09:14:24.973Z,9.93
2018-12-07T09:17:55.045Z,9.28
2018-12-07T09:21:25.037Z,8.34
2018-12-07T09:24:55.089Z,11.39
2018-12-07T09:28:25.101Z,10.85
2018-12-07T09:31:55.183Z,10.34
2018-12-07T09:35:25.322Z,9.31
2018-12-07T09:38:55.407Z,8.55
2018-12-07T09:42:25.626Z,8.61
2018-12-07T09:45:55.671Z,9.31
2018-12-07T09:49:25.904Z,9.8
2018-12-07T09:52:55.981Z,8.66
2018-12-07T09:56:26.118Z,10.71
2018-12-07T10:00:09.912Z,9.21
2018-12-07T10:03:40.084Z,8.19
2018-12-07T10:07:10.177Z,8.31
2018-12-07T10:10:40.387Z,7.88
2018-12-07T10:14:10.539Z,10.45
2018-12-07T10:17:40.636Z,9.06
2018-12-07T10:21:10.723Z,8.28
2018-12-07T10:24:40.956Z,11.95
2018-12-07T10:28:11.018Z,11.59
2018-12-07T10:31:41.170Z,12.91
2018-12-07T10:35:11.303Z,10.76
2018-12-07T10:38:41.335Z,13.05
2018-12-07T10:42:11.357Z,12.19
2018-12-07T10:45:41.449Z,11.69
2018-12-07T10:49:11.464Z,11.45
2018-12-07T10:52:41.624Z,8.56
2018-12-07T10:56:11.646Z,8.8
2018-12-07T10:59:41.628Z,8.62
2018-12-07T11:09:43.397Z,7.65
2018-12-07T12:00:09.907Z,9.96
2018-12-07T12:03:39.919Z,7.24
2018-12-07T12:07:09.972Z,6.65
2018-12-07T12:10:40.195Z,10.16
2018-12-07T12:14:10.167Z,9.95
2018-12-07T12:17:40.162Z,7.61
2018-12-07T12:21:10.104Z,9.95
2018-12-07T12:24:40.184Z,9.04
2018-12-07T12:28:10.227Z,8.74
2018-12-07T12:31:40.119Z,8.64
2018-12-07T12:35:10.201Z,8.55
2018-12-07T12:38:40.209Z,9.16
2018-12-07T12:42:10.316Z,8.79
2018-12-07T12:45:40.588Z,9.15
2018-12-07T12:49:10.633Z,9.12
2018-12-07T12:52:40.594Z,8.51
2018-12-07T12:56:10.587Z,8.95
2018-12-07T12:59:40.628Z,6.89
2018-12-07T13:03:10.718Z,9.43
2018-12-07T13:06:40.896Z,9.99
2018-12-07T13:10:10.995Z,10.09
2018-12-07T13:13:41.277Z,7.84
2018-12-07T13:17:11.379Z,9.47
2018-12-07T13:20:41.422Z,9.31
2018-12-07T13:24:11.494Z,8.45
2018-12-07T13:27:41.580Z,10.18
2018-12-07T13:31:12.030Z,9.29
2018-12-07T13:34:42.071Z,9.26
2018-12-07T13:38:12.176Z,7.79
2018-12-07T13:41:42.368Z,8.15
2018-12-07T13:45:12.511Z,8.33
2018-12-07T13:48:42.871Z,9.25
2018-12-07T13:52:13.098Z,9.45
2018-12-07T13:55:43.232Z,9.56
2018-12-07T13:59:13.460Z,10.22
2018-12-07T14:00:09.737Z,10.14
2018-12-07T14:03:39.956Z,10.07
2018-12-07T14:07:10.262Z,9.41
2018-12-07T14:10:40.279Z,9.62
2018-12-07T14:14:10.569Z,9.39
2018-12-07T14:17:40.657Z,9.93
2018-12-07T14:21:10.744Z,10.54
2018-12-07T14:24:40.827Z,8.96
2018-12-07T14:28:10.926Z,11.2
2018-12-07T14:31:41.115Z,10.36
2018-12-07T14:35:11.280Z,10.46
2018-12-07T14:38:41.448Z,11.15
2018-12-07T14:42:11.633Z,9.68
2018-12-07T14:45:41.708Z,11.91
2018-12-07T14:49:12.182Z,8.55
2018-12-07T14:52:42.316Z,11.01
2018-12-07T14:56:12.509Z,10.41
2018-12-07T14:59:42.541Z,8.27
2018-12-07T15:03:12.755Z,8.38
2018-12-07T15:06:42.943Z,10.39
2018-12-07T15:10:13.139Z,9.51
2018-12-07T15:13:43.403Z,10.53
2018-12-07T15:17:13.722Z,11.07
2018-12-07T15:20:43.654Z,8.11
2018-12-07T15:24:13.911Z,13.71
2018-12-07T15:27:44.066Z,10.76
2018-12-07T15:31:14.318Z,12.25
2018-12-07T15:34:44.445Z,16.6
2018-12-07T15:38:14.515Z,10.18
2018-12-07T15:41:44.761Z,14.91
2018-12-07T15:45:14.861Z,13.04
2018-12-07T15:48:45.159Z,9.66
2018-12-07T15:52:15.330Z,11.14
2018-12-07T15:55:45.676Z,10.79
2018-12-07T15:59:16.077Z,11.14
2018-12-07T16:00:09.804Z,11.26
2018-12-07T16:03:39.900Z,22.14
2018-12-07T16:07:10.211Z,15.49
2018-12-07T16:10:40.292Z,14.91
2018-12-07T16:14:10.363Z,11.44
2018-12-07T16:17:40.748Z,8.56
2018-12-07T16:21:10.808Z,13.54
2018-12-07T16:24:40.990Z,7.11
2018-12-07T16:28:11.270Z,7.16
2018-12-07T16:31:41.310Z,10.07
2018-12-07T16:35:11.736Z,11.15
2018-12-07T16:38:41.881Z,10.47
2018-12-07T16:42:12.088Z,9.82
2018-12-07T16:45:42.465Z,10.76
2018-12-07T16:49:12.615Z,10.04
2018-12-07T16:52:42.619Z,11.71
2018-12-07T16:56:12.753Z,10.7
2018-12-07T16:59:42.881Z,6.32
2018-12-07T17:03:13.020Z,12
2018-12-07T17:06:43.189Z,10.03
2018-12-07T17:10:13.413Z,4.07
2018-12-07T17:13:43.544Z,9.68
2018-12-07T17:17:13.742Z,7.31
2018-12-07T17:20:44.578Z,3.31
2018-12-07T17:24:14.910Z,7.83
2018-12-07T17:27:44.988Z,8.79
2018-12-07T17:31:15.287Z,1.8
2018-12-07T17:34:45.590Z,3.49
2018-12-07T17:38:15.894Z,7.7
2018-12-07T17:41:46.111Z,9.41
2018-12-07T17:45:16.299Z,8.39
2018-12-07T17:48:46.432Z,8.12
2018-12-07T17:52:16.805Z,7.15
2018-12-07T17:55:46.931Z,9.38
2018-12-07T17:59:17.199Z,4.01
2018-12-07T18:00:11.766Z,6.29
2018-12-07T18:03:41.944Z,4.94
2018-12-07T18:07:12.145Z,7.66
2018-12-07T18:10:42.400Z,9.5
2018-12-07T18:14:12.515Z,12.31
2018-12-07T18:17:42.623Z,8.25
2018-12-07T18:21:12.939Z,9.29
2018-12-07T18:24:43.113Z,8
2018-12-07T18:28:13.308Z,6.85
2018-12-07T18:31:43.638Z,9.76
2018-12-07T18:35:13.874Z,7.36
2018-12-07T18:38:43.898Z,9.71
2018-12-07T18:42:14.192Z,4.8
2018-12-07T18:45:44.194Z,5.99
2018-12-07T18:49:14.587Z,9.26
2018-12-07T18:52:44.779Z,10.01
2018-12-07T18:56:14.844Z,9.31
2018-12-07T18:59:45.097Z,9.36
2018-12-07T19:03:15.304Z,7.3
2018-12-07T19:06:45.435Z,7.71
2018-12-07T19:10:15.639Z,9.75
2018-12-07T19:13:45.739Z,10.26
2018-12-07T19:17:16.097Z,8.54
2018-12-07T19:20:46.144Z,10.45
2018-12-07T19:24:16.345Z,9.78
2018-12-07T19:27:46.480Z,8.62
2018-12-07T19:31:16.540Z,8.49
2018-12-07T19:34:47.041Z,3.44
2018-12-07T19:38:17.475Z,3.39
2018-12-07T19:41:47.775Z,4.62
2018-12-07T19:45:17.886Z,8.4
2018-12-07T19:48:47.993Z,9.44
2018-12-07T19:52:18.121Z,5.42
2018-12-07T19:55:48.181Z,9.1
2018-12-07T19:59:18.523Z,8.94
2018-12-07T20:00:09.241Z,11.09
2018-12-07T20:03:39.492Z,7.4
2018-12-07T20:07:09.799Z,9.69
2018-12-07T20:10:39.929Z,7.38
2018-12-07T20:14:10.110Z,10.68
2018-12-07T20:17:40.427Z,10.66
2018-12-07T20:21:10.674Z,8.75
2018-12-07T20:24:41.479Z,9.25
2018-12-07T20:28:11.665Z,10.39
2018-12-07T20:31:41.947Z,7.85
2018-12-07T20:35:12.575Z,10.53
2018-12-07T20:38:43.238Z,12.68
2018-12-07T20:42:13.831Z,11.48
2018-12-07T20:45:44.155Z,11.78
2018-12-07T20:49:14.675Z,8.34
2018-12-07T20:52:44.836Z,9.54
2018-12-07T20:56:15.008Z,12.43
2018-12-07T20:59:45.305Z,11.28
2018-12-07T21:03:15.741Z,10.3
2018-12-07T21:10:24.240Z,12.19
2018-12-07T21:14:32.781Z,11.49
2018-12-07T21:18:02.935Z,10.76
2018-12-07T21:21:33.029Z,9.75
2018-12-07T21:25:03.700Z,8.55
2018-12-07T21:28:33.788Z,9.64
2018-12-07T21:32:06.952Z,11.61
2018-12-07T21:36:34.849Z,13.61
2018-12-07T21:40:09.972Z,9.79
2018-12-07T21:43:40.122Z,10.84
2018-12-07T21:47:10.407Z,6.12
2018-12-07T21:50:42.974Z,6.66
2018-12-07T21:54:13.173Z,9.57
2018-12-07T21:57:43.755Z,6.24
2018-12-07T22:00:08.374Z,9.94
2018-12-07T22:03:38.483Z,7.3
2018-12-07T22:07:08.614Z,8.9
2018-12-07T22:10:38.832Z,7.26
2018-12-07T22:14:09.245Z,8.98
2018-12-07T22:17:39.373Z,8.5
2018-12-07T22:21:09.630Z,8.39
2018-12-07T22:24:40.113Z,7.96
2018-12-07T22:28:10.621Z,9.21
2018-12-07T22:31:40.683Z,8.65
2018-12-07T22:35:10.984Z,8.36
2018-12-07T22:38:41.008Z,9.7
2018-12-07T22:42:11.380Z,5.09
2018-12-07T22:45:41.462Z,8.1
2018-12-07T22:49:11.544Z,10.56
2018-12-07T22:52:41.559Z,7.69
2018-12-07T22:56:11.729Z,9.46
2018-12-07T22:59:41.811Z,8.79
2018-12-07T23:03:11.902Z,8.99
2018-12-07T23:06:41.927Z,9.34
2018-12-07T23:10:12.067Z,8.04
2018-12-07T23:13:42.065Z,5.46
2018-12-07T23:17:12.059Z,7.18
2018-12-07T23:20:42.132Z,6.12
2018-12-07T23:24:12.083Z,8.28
2018-12-07T23:27:42.227Z,8.84
2018-12-07T23:31:12.549Z,5.24
2018-12-07T23:34:42.506Z,9.49
2018-12-07T23:38:12.585Z,6
2018-12-07T23:41:42.475Z,8.7
2018-12-07T23:45:12.527Z,8.89
2018-12-07T23:48:42.609Z,8.52
2018-12-07T23:52:12.749Z,9.21
2018-12-07T23:55:42.773Z,4.94
2018-12-07T23:59:12.985Z,3.52
